createdAt,value
2023-05-01T00:01:49.384Z,13.93
2023-05-01T00:04:15.821Z,13.91
2023-05-01T00:06:42.247Z,13.97
2023-05-01T00:09:08.634Z,13.97
2023-05-01T00:11:34.925Z,14.00
2023-05-01T00:14:01.225Z,13.96
2023-05-01T00:16:31.748Z,14.01
2023-05-01T00:18:58.083Z,13.49
2023-05-01T00:21:24.385Z,13.84
2023-05-01T00:23:50.703Z,13.44
2023-05-01T00:26:16.990Z,13.58
2023-05-01T00:28:43.808Z,13.67
2023-05-01T00:31:10.134Z,13.94
2023-05-01T00:33:36.425Z,13.76
2023-05-01T00:36:02.727Z,13.82
2023-05-01T00:38:29.060Z,13.96
2023-05-01T00:40:55.355Z,13.81
2023-05-01T00:43:21.665Z,14.00
2023-05-01T00:45:48.066Z,13.92
2023-05-01T00:48:14.440Z,13.96
2023-05-01T00:50:40.756Z,13.76
2023-05-01T00:53:07.081Z,13.67
2023-05-01T00:55:33.384Z,13.91
2023-05-01T00:57:59.686Z,13.93
2023-05-01T01:00:26.113Z,13.87
2023-05-01T01:02:52.458Z,13.60
2023-05-01T01:05:18.784Z,13.67
2023-05-01T01:07:45.128Z,13.85
2023-05-01T01:10:11.445Z,13.78
2023-05-01T01:12:37.779Z,13.77
2023-05-01T01:15:04.109Z,13.94
2023-05-01T01:17:30.427Z,13.82
2023-05-01T01:19:56.959Z,13.56
2023-05-01T01:22:23.545Z,13.28
2023-05-01T01:24:49.845Z,13.36
2023-05-01T01:27:16.154Z,13.38
2023-05-01T01:29:42.470Z,13.23
2023-05-01T01:32:08.768Z,13.43
2023-05-01T01:34:35.080Z,13.25
2023-05-01T01:37:01.395Z,13.77
2023-05-01T01:39:27.691Z,13.47
2023-05-01T01:41:53.984Z,13.41
2023-05-01T01:44:20.298Z,13.48
2023-05-01T01:46:46.629Z,13.60
2023-05-01T01:49:12.958Z,13.51
2023-05-01T01:51:39.314Z,13.48
2023-05-01T01:54:05.613Z,13.39
2023-05-01T01:56:31.903Z,13.35
2023-05-01T01:58:58.219Z,13.29
2023-05-01T02:01:24.604Z,13.37
2023-05-01T02:03:51.027Z,13.18
2023-05-01T02:06:17.492Z,13.21
2023-05-01T02:08:43.848Z,13.22
2023-05-01T02:11:10.149Z,13.19
2023-05-01T02:13:36.468Z,13.25
2023-05-01T02:16:02.827Z,13.26
2023-05-01T02:18:29.271Z,13.24
2023-05-01T02:20:55.585Z,13.20
2023-05-01T02:23:21.880Z,13.21
2023-05-01T02:25:48.193Z,12.91
2023-05-01T02:28:14.504Z,13.04
2023-05-01T02:30:40.807Z,13.15
2023-05-01T02:33:07.160Z,12.87
2023-05-01T02:35:33.516Z,12.90
2023-05-01T02:37:59.817Z,12.95
2023-05-01T02:40:26.117Z,12.85
2023-05-01T02:42:54.565Z,12.81
2023-05-01T02:45:20.921Z,12.90
2023-05-01T02:47:47.325Z,12.77
2023-05-01T02:50:13.674Z,12.79
2023-05-01T02:52:39.997Z,12.97
2023-05-01T02:55:06.352Z,12.95
2023-05-01T02:57:32.704Z,12.88
2023-05-01T02:59:58.999Z,13.03
2023-05-01T03:02:25.304Z,13.11
2023-05-01T03:04:51.625Z,12.80
2023-05-01T03:07:17.935Z,12.93
2023-05-01T03:09:44.259Z,12.89
2023-05-01T03:12:10.588Z,12.92
2023-05-01T03:14:36.899Z,13.02
2023-05-01T03:17:03.212Z,12.78
2023-05-01T03:19:29.524Z,12.74
2023-05-01T03:21:55.825Z,13.00
2023-05-01T03:24:22.125Z,12.82
2023-05-01T03:26:48.443Z,12.88
2023-05-01T03:29:14.736Z,12.76
2023-05-01T03:31:41.117Z,12.89
2023-05-01T03:34:07.497Z,12.94
2023-05-01T03:36:33.834Z,12.76
2023-05-01T03:39:00.157Z,12.53
2023-05-01T03:41:26.479Z,12.68
2023-05-01T03:43:52.796Z,12.67
2023-05-01T03:46:19.142Z,12.34
2023-05-01T03:48:45.517Z,12.29
2023-05-01T03:51:11.852Z,12.38
2023-05-01T03:53:38.176Z,12.29
2023-05-01T03:56:04.521Z,12.35
2023-05-01T03:58:30.870Z,12.38
2023-05-01T04:00:57.198Z,12.55
2023-05-01T04:03:23.665Z,12.12
2023-05-01T04:05:50.019Z,11.92
2023-05-01T04:08:16.342Z,12.06
2023-05-01T04:10:42.656Z,12.23
2023-05-01T04:13:08.947Z,12.21
2023-05-01T04:15:35.244Z,12.24
2023-05-01T04:18:01.690Z,12.30
2023-05-01T04:20:28.172Z,12.27
2023-05-01T04:22:54.484Z,12.39
2023-05-01T04:25:20.821Z,12.12
2023-05-01T04:27:47.213Z,12.02
2023-05-01T04:30:13.516Z,12.14
2023-05-01T04:32:39.864Z,12.36
2023-05-01T04:35:06.164Z,12.28
2023-05-01T04:37:32.461Z,12.42
2023-05-01T04:39:58.893Z,12.39
2023-05-01T04:42:25.330Z,12.49
2023-05-01T04:44:51.632Z,12.57
2023-05-01T04:47:17.952Z,12.54
2023-05-01T04:49:44.263Z,12.48
2023-05-01T04:52:10.570Z,12.13
2023-05-01T04:54:36.885Z,12.47
2023-05-01T04:57:03.200Z,12.77
2023-05-01T04:59:29.518Z,12.65
2023-05-01T05:01:55.930Z,12.49
2023-05-01T05:04:22.354Z,12.43
2023-05-01T05:06:48.757Z,12.33
2023-05-01T05:09:16.503Z,12.49
2023-05-01T05:11:44.278Z,12.34
2023-05-01T05:14:10.562Z,12.48
2023-05-01T05:16:36.891Z,12.49
2023-05-01T05:19:03.193Z,12.67
2023-05-01T05:21:29.515Z,12.55
2023-05-01T05:23:55.841Z,12.70
2023-05-01T05:26:22.158Z,12.52
2023-05-01T05:28:48.461Z,12.65
2023-05-01T05:31:14.790Z,12.66
2023-05-01T05:33:41.096Z,12.69
2023-05-01T05:36:07.415Z,12.69
2023-05-01T05:38:33.824Z,12.72
2023-05-01T05:41:00.135Z,12.80
2023-05-01T05:43:28.104Z,12.87
2023-05-01T05:45:54.690Z,12.78
2023-05-01T05:48:21.070Z,12.94
2023-05-01T05:50:47.403Z,12.84
2023-05-01T05:53:13.727Z,12.81
2023-05-01T05:55:40.023Z,12.83
2023-05-01T05:58:06.355Z,12.97
2023-05-01T06:00:32.824Z,12.98
2023-05-01T06:02:59.203Z,12.78
2023-05-01T06:05:26.744Z,13.02
2023-05-01T06:07:54.091Z,12.95
2023-05-01T06:10:20.380Z,12.95
2023-05-01T06:12:54.912Z,12.83
2023-05-01T06:15:30.465Z,12.95
2023-05-01T06:17:56.822Z,12.97
2023-05-01T06:20:23.146Z,13.15
2023-05-01T06:22:49.471Z,12.96
2023-05-01T06:25:15.780Z,13.25
2023-05-01T06:27:42.079Z,12.75
2023-05-01T06:30:08.420Z,12.85
2023-05-01T06:32:34.756Z,13.09
2023-05-01T06:35:01.070Z,13.06
2023-05-01T06:37:27.673Z,13.26
2023-05-01T06:39:56.257Z,13.40
2023-05-01T06:42:22.698Z,13.23
2023-05-01T06:44:49.014Z,13.29
2023-05-01T06:47:15.362Z,13.25
2023-05-01T06:49:41.690Z,13.18
2023-05-01T06:52:08.027Z,13.12
2023-05-01T06:54:34.334Z,13.29
2023-05-01T06:57:00.647Z,13.34
2023-05-01T06:59:26.961Z,13.15
2023-05-01T07:01:53.293Z,13.10
2023-05-01T07:04:19.619Z,12.85
2023-05-01T07:06:46.035Z,12.95
2023-05-01T07:09:12.386Z,13.00
2023-05-01T07:11:38.692Z,12.62
2023-05-01T07:14:05.021Z,12.98
2023-05-01T07:16:31.370Z,12.94
2023-05-01T07:18:57.733Z,13.02
2023-05-01T07:21:24.111Z,13.16
2023-05-01T07:23:50.458Z,13.10
2023-05-01T07:26:16.790Z,12.76
2023-05-01T07:28:43.118Z,12.90
2023-05-01T07:31:09.436Z,13.12
2023-05-01T07:33:35.750Z,12.90
2023-05-01T07:36:02.068Z,12.71
2023-05-01T07:38:28.376Z,12.85
2023-05-01T07:40:54.676Z,12.78
2023-05-01T07:43:20.995Z,12.87
2023-05-01T07:45:47.509Z,12.76
2023-05-01T07:48:14.098Z,12.90
2023-05-01T07:50:40.457Z,12.90
2023-05-01T07:53:06.771Z,12.80
2023-05-01T07:55:33.073Z,12.42
2023-05-01T07:57:59.412Z,12.80
2023-05-01T08:00:25.725Z,12.92
2023-05-01T08:02:52.420Z,13.13
2023-05-01T08:05:18.900Z,13.25
2023-05-01T08:07:45.195Z,13.29
2023-05-01T08:10:11.501Z,13.11
2023-05-01T08:12:37.927Z,13.13
2023-05-01T08:15:04.256Z,13.32
2023-05-01T08:17:30.653Z,13.01
2023-05-01T08:19:57.309Z,13.16
2023-05-01T08:22:23.833Z,13.01
2023-05-01T08:24:50.151Z,13.24
2023-05-01T08:27:16.534Z,13.31
2023-05-01T08:29:42.848Z,13.13
2023-05-01T08:32:09.183Z,12.90
2023-05-01T08:34:35.535Z,12.89
2023-05-01T08:37:01.873Z,13.04
2023-05-01T08:39:28.164Z,13.00
2023-05-01T08:41:54.482Z,12.96
2023-05-01T08:44:20.786Z,13.06
2023-05-01T08:46:47.131Z,12.98
2023-05-01T08:49:13.514Z,12.76
2023-05-01T08:51:39.819Z,12.92
2023-05-01T08:54:06.133Z,12.93
2023-05-01T08:56:32.473Z,12.80
2023-05-01T08:58:58.798Z,13.02
2023-05-01T09:01:25.177Z,13.13
2023-05-01T09:03:51.575Z,12.89
2023-05-01T09:06:17.989Z,12.82
2023-05-01T09:08:44.461Z,12.89
2023-05-01T09:11:10.800Z,13.14
2023-05-01T09:13:37.115Z,13.36
2023-05-01T09:16:03.461Z,13.12
2023-05-01T09:18:29.829Z,13.58
2023-05-01T09:20:56.131Z,13.52
2023-05-01T09:23:22.424Z,13.49
2023-05-01T09:25:51.400Z,13.75
2023-05-01T09:28:18.306Z,13.65
2023-05-01T09:30:44.605Z,13.32
2023-05-01T09:33:11.062Z,13.51
2023-05-01T09:35:37.507Z,13.51
2023-05-01T09:38:03.800Z,13.51
2023-05-01T09:40:30.124Z,13.39
2023-05-01T09:42:56.422Z,13.61
2023-05-01T09:45:22.732Z,13.72
2023-05-01T09:47:49.089Z,13.35
2023-05-01T09:50:15.407Z,13.38
2023-05-01T09:52:41.711Z,13.78
2023-05-01T09:55:08.036Z,13.64
2023-05-01T09:57:34.340Z,13.83
2023-05-01T10:00:00.636Z,13.56
2023-05-01T10:02:27.053Z,13.69
2023-05-01T10:04:53.416Z,13.90
2023-05-01T10:07:19.722Z,13.95
2023-05-01T10:09:46.055Z,13.89
2023-05-01T10:12:12.346Z,13.87
2023-05-01T10:14:38.712Z,14.14
2023-05-01T10:17:05.093Z,13.79
2023-05-01T10:19:31.458Z,13.73
2023-05-01T10:21:57.792Z,13.51
2023-05-01T10:24:24.121Z,14.02
2023-05-01T10:26:50.447Z,14.26
2023-05-01T10:29:16.741Z,14.33
2023-05-01T10:31:43.142Z,14.48
2023-05-01T10:34:09.491Z,14.62
2023-05-01T10:36:35.834Z,14.65
2023-05-01T10:39:03.132Z,15.10
2023-05-01T10:41:29.564Z,14.91
2023-05-01T10:43:55.907Z,15.00
2023-05-01T10:46:22.266Z,14.82
2023-05-01T10:48:48.593Z,14.77
2023-05-01T10:51:14.906Z,14.75
2023-05-01T10:53:41.257Z,14.70
2023-05-01T10:56:07.556Z,14.70
2023-05-01T10:58:33.868Z,14.62
2023-05-01T11:01:00.191Z,14.71
2023-05-01T11:03:26.497Z,14.54
2023-05-01T11:05:52.807Z,14.73
2023-05-01T11:08:19.151Z,14.88
2023-05-01T11:10:45.443Z,15.11
2023-05-01T11:13:11.739Z,14.86
2023-05-01T11:15:38.052Z,15.11
2023-05-01T11:18:04.409Z,14.85
2023-05-01T11:20:30.714Z,14.97
2023-05-01T11:22:57.024Z,14.74
2023-05-01T11:25:23.312Z,14.97
2023-05-01T11:27:49.611Z,14.94
2023-05-01T11:30:19.128Z,14.92
2023-05-01T11:32:45.470Z,14.97
2023-05-01T11:35:11.798Z,15.23
2023-05-01T11:37:38.110Z,15.23
2023-05-01T11:40:04.415Z,15.45
2023-05-01T11:42:30.778Z,15.29
2023-05-01T11:44:57.924Z,15.21
2023-05-01T11:47:24.413Z,15.19
2023-05-01T11:49:50.759Z,15.10
2023-05-01T11:52:17.078Z,15.07
2023-05-01T11:54:43.381Z,14.73
2023-05-01T11:57:09.690Z,14.95
2023-05-01T11:59:36.008Z,14.74
2023-05-01T12:02:02.342Z,14.80
2023-05-01T12:04:32.071Z,14.64
2023-05-01T12:06:58.930Z,14.50
2023-05-01T12:09:25.248Z,14.55
2023-05-01T12:11:52.707Z,14.17
2023-05-01T12:14:19.538Z,14.33
2023-05-01T12:16:45.899Z,14.54
2023-05-01T12:19:12.211Z,14.77
2023-05-01T12:21:39.041Z,14.60
2023-05-01T12:24:05.338Z,14.17
2023-05-01T12:26:31.651Z,14.36
2023-05-01T12:28:58.123Z,14.59
2023-05-01T12:31:24.487Z,14.73
2023-05-01T12:33:50.820Z,14.74
2023-05-01T12:36:17.130Z,14.64
2023-05-01T12:38:43.438Z,14.82
2023-05-01T12:41:09.771Z,15.05
2023-05-01T12:43:36.088Z,15.16
2023-05-01T12:46:02.420Z,15.35
2023-05-01T12:48:28.751Z,15.50
2023-05-01T12:50:55.300Z,15.29
2023-05-01T12:53:21.670Z,15.29
2023-05-01T12:55:47.966Z,15.03
2023-05-01T12:58:14.289Z,14.94
2023-05-01T13:00:40.594Z,14.48
2023-05-01T13:03:07.037Z,14.35
2023-05-01T13:05:33.606Z,14.24
2023-05-01T13:07:59.958Z,14.89
2023-05-01T13:10:29.581Z,14.59
2023-05-01T13:12:55.908Z,14.69
2023-05-01T13:15:22.212Z,14.86
2023-05-01T13:17:48.571Z,14.60
2023-05-01T13:20:14.906Z,14.45
2023-05-01T13:22:41.200Z,14.69
2023-05-01T13:25:07.711Z,15.12
2023-05-01T13:27:34.090Z,15.00
2023-05-01T13:30:00.912Z,14.67
2023-05-01T13:32:27.607Z,14.60
2023-05-01T13:34:54.077Z,14.46
2023-05-01T13:37:20.421Z,14.63
2023-05-01T13:39:46.725Z,14.74
2023-05-01T13:42:13.054Z,14.86
2023-05-01T13:44:39.356Z,14.84
2023-05-01T13:47:05.650Z,14.73
2023-05-01T13:49:31.988Z,14.82
2023-05-01T13:51:58.296Z,14.59
2023-05-01T13:54:25.484Z,14.47
2023-05-01T13:56:51.843Z,14.61
2023-05-01T13:59:18.134Z,14.40
2023-05-01T14:01:44.508Z,14.31
2023-05-01T14:04:10.878Z,14.13
2023-05-01T14:06:37.226Z,14.17
2023-05-01T14:09:03.527Z,14.11
2023-05-01T14:11:29.847Z,13.96
2023-05-01T14:13:56.152Z,13.85
2023-05-01T14:16:22.479Z,13.99
2023-05-01T14:18:48.844Z,14.16
2023-05-01T14:21:15.145Z,14.06
2023-05-01T14:23:41.438Z,14.07
2023-05-01T14:26:07.767Z,14.36
2023-05-01T14:28:34.075Z,14.55
2023-05-01T14:31:00.422Z,14.70
2023-05-01T14:33:26.760Z,14.28
2023-05-01T14:35:53.058Z,14.21
2023-05-01T14:38:19.368Z,14.33
2023-05-01T14:40:45.700Z,14.56
2023-05-01T14:43:11.998Z,14.27
2023-05-01T14:45:38.322Z,14.35
2023-05-01T14:48:04.684Z,14.59
2023-05-01T14:50:31.038Z,14.50
2023-05-01T14:52:57.342Z,14.61
2023-05-01T14:55:23.679Z,14.38
2023-05-01T14:57:49.979Z,14.68
2023-05-01T15:00:16.274Z,14.77
2023-05-01T15:02:42.748Z,15.08
2023-05-01T15:05:09.206Z,14.88
2023-05-01T15:07:35.516Z,14.79
2023-05-01T15:10:01.886Z,14.89
2023-05-01T15:12:28.327Z,14.82
2023-05-01T15:14:54.616Z,14.57
2023-05-01T15:17:21.025Z,14.30
2023-05-01T15:19:47.353Z,14.26
2023-05-01T15:22:13.664Z,14.48
2023-05-01T15:24:39.981Z,14.57
2023-05-01T15:27:06.282Z,14.40
2023-05-01T15:29:32.580Z,14.66
2023-05-01T15:32:10.850Z,14.92
2023-05-01T15:34:38.062Z,14.88
2023-05-01T15:37:04.398Z,14.98
2023-05-01T15:39:30.719Z,15.05
2023-05-01T15:41:57.057Z,14.95
2023-05-01T15:44:23.378Z,14.84
2023-05-01T15:46:49.767Z,14.78
2023-05-01T15:49:16.102Z,14.69
2023-05-01T15:51:42.415Z,14.60
2023-05-01T15:54:08.705Z,14.50
2023-05-01T15:56:35.007Z,14.55
2023-05-01T15:59:01.315Z,14.72
2023-05-01T16:01:27.955Z,14.71
2023-05-01T16:03:54.364Z,14.60
2023-05-01T16:06:20.920Z,14.29
2023-05-01T16:08:47.338Z,14.43
2023-05-01T16:11:13.644Z,14.52
2023-05-01T16:13:40.390Z,14.56
2023-05-01T16:16:06.793Z,14.14
2023-05-01T16:18:33.258Z,14.33
2023-05-01T16:20:59.902Z,14.32
2023-05-01T16:23:26.208Z,14.48
2023-05-01T16:25:52.491Z,14.37
2023-05-01T16:28:18.895Z,14.34
2023-05-01T16:30:45.472Z,14.26
2023-05-01T16:33:11.793Z,14.24
2023-05-01T16:35:38.174Z,14.22
2023-05-01T16:38:04.489Z,14.15
2023-05-01T16:40:30.802Z,14.45
2023-05-01T16:42:57.119Z,14.27
2023-05-01T16:45:23.501Z,14.49
2023-05-01T16:47:49.879Z,14.57
2023-05-01T16:50:16.256Z,14.77
2023-05-01T16:52:42.562Z,14.69
2023-05-01T16:55:08.864Z,14.46
2023-05-01T16:57:35.179Z,14.43
2023-05-01T17:00:01.649Z,14.45
2023-05-01T17:02:28.523Z,14.51
2023-05-01T17:04:54.919Z,14.60
2023-05-01T17:07:21.300Z,14.73
2023-05-01T17:09:47.585Z,14.71
2023-05-01T17:12:13.972Z,14.74
2023-05-01T17:14:41.830Z,14.62
2023-05-01T17:17:09.594Z,14.59
2023-05-01T17:19:36.056Z,14.44
2023-05-01T17:22:02.369Z,14.29
2023-05-01T17:24:28.677Z,14.45
2023-05-01T17:26:54.991Z,14.35
2023-05-01T17:29:21.305Z,14.43
2023-05-01T17:31:47.638Z,14.44
2023-05-01T17:34:13.996Z,14.29
2023-05-01T17:36:40.316Z,14.15
2023-05-01T17:39:06.798Z,14.28
2023-05-01T17:41:33.288Z,14.19
2023-05-01T17:43:59.655Z,14.12
2023-05-01T17:46:26.041Z,14.01
2023-05-01T17:48:52.509Z,13.97
2023-05-01T17:51:18.840Z,14.08
2023-05-01T17:53:45.163Z,14.17
2023-05-01T17:56:11.504Z,14.00
2023-05-01T17:58:37.805Z,14.19
2023-05-01T18:01:04.145Z,14.30
2023-05-01T18:03:30.647Z,14.30
2023-05-01T18:05:57.002Z,14.14
2023-05-01T18:08:23.306Z,14.11
2023-05-01T18:10:49.627Z,13.90
2023-05-01T18:13:15.930Z,13.93
2023-05-01T18:15:42.222Z,14.08
2023-05-01T18:18:08.659Z,14.14
2023-05-01T18:20:34.980Z,14.18
2023-05-01T18:23:01.311Z,14.24
2023-05-01T18:25:27.664Z,14.22
2023-05-01T18:27:53.978Z,14.11
2023-05-01T18:30:20.283Z,14.26
2023-05-01T18:32:48.773Z,13.99
2023-05-01T18:35:15.445Z,13.95
2023-05-01T18:37:41.743Z,13.99
2023-05-01T18:40:08.058Z,13.79
2023-05-01T18:42:34.355Z,13.84
2023-05-01T18:45:00.641Z,13.56
2023-05-01T18:47:26.993Z,13.61
2023-05-01T18:49:53.310Z,13.43
2023-05-01T18:52:19.614Z,13.37
2023-05-01T18:54:45.951Z,13.34
2023-05-01T18:57:12.268Z,13.43
2023-05-01T18:59:38.588Z,13.32
2023-05-01T19:02:05.034Z,13.21
2023-05-01T19:04:32.138Z,13.50
2023-05-01T19:06:59.404Z,13.32
2023-05-01T19:09:25.757Z,13.15
2023-05-01T19:11:53.763Z,13.20
2023-05-01T19:14:20.574Z,13.22
2023-05-01T19:16:47.205Z,13.14
2023-05-01T19:19:13.625Z,13.18
2023-05-01T19:21:39.917Z,13.21
2023-05-01T19:24:06.282Z,13.06
2023-05-01T19:26:33.020Z,13.06
2023-05-01T19:28:59.482Z,13.06
2023-05-01T19:31:25.897Z,13.16
2023-05-01T19:33:52.330Z,12.93
2023-05-01T19:36:18.618Z,12.90
2023-05-01T19:38:45.041Z,12.87
2023-05-01T19:41:11.328Z,12.91
2023-05-01T19:43:37.633Z,12.90
2023-05-01T19:46:04.298Z,12.78
2023-05-01T19:48:30.706Z,12.82
2023-05-01T19:50:57.006Z,12.83
2023-05-01T19:53:23.325Z,12.68
2023-05-01T19:55:49.630Z,12.87
2023-05-01T19:58:15.929Z,12.92
2023-05-01T20:00:42.293Z,12.97
2023-05-01T20:03:08.677Z,12.70
2023-05-01T20:05:35.089Z,12.88
2023-05-01T20:08:01.414Z,12.90
2023-05-01T20:10:27.718Z,12.93
2023-05-01T20:12:54.048Z,13.05
2023-05-01T20:15:20.370Z,12.83
2023-05-01T20:17:46.687Z,13.14
2023-05-01T20:20:13.075Z,13.10
2023-05-01T20:22:39.412Z,13.18
2023-05-01T20:25:07.454Z,12.96
2023-05-01T20:27:38.285Z,12.77
2023-05-01T20:30:04.757Z,12.51
2023-05-01T20:32:31.139Z,12.28
2023-05-01T20:34:57.549Z,12.66
2023-05-01T20:37:23.899Z,13.06
2023-05-01T20:39:50.192Z,12.80
2023-05-01T20:42:16.492Z,12.99
2023-05-01T20:44:42.804Z,13.15
2023-05-01T20:47:09.103Z,13.20
2023-05-01T20:49:35.396Z,12.82
2023-05-01T20:52:01.702Z,12.30
2023-05-01T20:54:27.995Z,12.18
2023-05-01T20:56:54.288Z,12.19
2023-05-01T20:59:20.603Z,12.32
2023-05-01T21:01:46.921Z,12.51
2023-05-01T21:04:13.539Z,12.76
2023-05-01T21:06:39.966Z,12.27
2023-05-01T21:09:06.311Z,12.46
2023-05-01T21:11:32.604Z,12.45
2023-05-01T21:13:59.157Z,12.68
2023-05-01T21:16:25.515Z,12.57
2023-05-01T21:18:51.950Z,12.70
2023-05-01T21:21:18.267Z,12.56
2023-05-01T21:23:44.563Z,12.52
2023-05-01T21:26:10.841Z,12.70
2023-05-01T21:28:37.161Z,12.61
2023-05-01T21:31:03.512Z,12.71
2023-05-01T21:33:29.811Z,12.24
2023-05-01T21:35:56.159Z,12.54
2023-05-01T21:38:22.453Z,12.69
2023-05-01T21:40:48.735Z,12.59
2023-05-01T21:43:15.045Z,12.47
2023-05-01T21:45:41.345Z,12.55
2023-05-01T21:48:07.766Z,12.48
2023-05-01T21:50:34.151Z,12.65
2023-05-01T21:53:00.454Z,12.15
2023-05-01T21:55:26.757Z,12.44
2023-05-01T21:57:53.070Z,12.32
2023-05-01T22:00:19.411Z,12.43
2023-05-01T22:02:45.817Z,12.51
2023-05-01T22:05:12.185Z,12.65
2023-05-01T22:07:40.927Z,12.32
2023-05-01T22:10:07.232Z,11.91
2023-05-01T22:12:33.550Z,12.33
2023-05-01T22:14:59.855Z,12.35
2023-05-01T22:17:26.165Z,12.35
2023-05-01T22:19:52.513Z,12.49
2023-05-01T22:22:19.236Z,12.49
2023-05-01T22:24:45.696Z,12.39
2023-05-01T22:27:12.000Z,12.11
2023-05-01T22:29:38.298Z,12.18
2023-05-01T22:32:04.618Z,11.93
2023-05-01T22:34:30.984Z,11.65
2023-05-01T22:36:57.292Z,12.13
2023-05-01T22:39:23.600Z,12.30
2023-05-01T22:41:49.952Z,12.42
2023-05-01T22:44:16.247Z,12.21
2023-05-01T22:46:42.573Z,12.13
2023-05-01T22:49:08.901Z,12.18
2023-05-01T22:51:35.219Z,12.28
2023-05-01T22:54:01.516Z,12.20
2023-05-01T22:56:27.861Z,12.09
2023-05-01T22:58:54.180Z,12.25
2023-05-01T23:01:20.530Z,12.13
2023-05-01T23:03:47.071Z,12.15
2023-05-01T23:06:13.517Z,12.29
2023-05-01T23:08:39.890Z,12.12
2023-05-01T23:11:06.222Z,12.17
2023-05-01T23:13:32.526Z,12.18
2023-05-01T23:15:58.846Z,12.08
2023-05-01T23:18:25.287Z,12.10
2023-05-01T23:20:51.605Z,12.14
2023-05-01T23:23:17.927Z,12.11
2023-05-01T23:25:44.249Z,11.96
2023-05-01T23:28:10.551Z,11.85
2023-05-01T23:30:36.838Z,11.85
2023-05-01T23:33:03.220Z,11.83
2023-05-01T23:35:29.596Z,11.78
2023-05-01T23:37:55.904Z,12.01
2023-05-01T23:40:22.264Z,11.96
2023-05-01T23:42:48.585Z,12.02
2023-05-01T23:45:14.890Z,11.85
2023-05-01T23:47:41.343Z,11.89
2023-05-01T23:50:07.679Z,11.97
2023-05-01T23:52:33.990Z,12.18
2023-05-01T23:55:00.296Z,11.98
2023-05-01T23:57:26.586Z,12.14
2023-05-01T23:59:53.881Z,11.83
